Time;durP1;ratioP1;P1;durP2;ratioP2;P2;SDS_P1;SDS_P2;PMS_P1;PMS_P2;Temp;Humidity;BMP_temperature;BMP_pressure;BME280_temperature;BME280_humidity;BME280_pressure;Samples;Min_cycle;Max_cycle;Signal;HPM_P1;HPM_P2
2021/11/22 00:01:59;;;;;;;23.08;10.95;;;5.70;99.90;;;4.50;100.00;97392.69;5048621;28;20335;-70
2021/11/22 00:04:26;;;;;;;55.20;17.58;;;5.70;99.90;;;4.51;100.00;97389.22;5047659;28;20045;-69
2021/11/22 00:06:53;;;;;;;37.35;14.15;;;5.60;99.90;;;4.55;100.00;97389.13;5045314;28;20073;-70
2021/11/22 00:09:20;;;;;;;29.23;13.57;;;5.60;99.90;;;4.57;100.00;97387.38;5046062;28;20139;-69
2021/11/22 00:11:49;;;;;;;28.25;13.05;;;5.60;99.90;;;4.47;100.00;97390.16;5046895;28;20073;-69
2021/11/22 00:14:17;;;;;;;32.63;13.90;;;5.60;99.90;;;4.61;100.00;97393.31;5045550;28;20049;-68
2021/11/22 00:16:45;;;;;;;40.00;16.00;;;5.60;99.90;;;4.57;100.00;97389.94;5044846;28;20099;-68
2021/11/22 00:19:12;;;;;;;42.28;15.20;;;5.60;99.90;;;4.55;100.00;97389.13;5045848;28;20151;-69
2021/11/22 00:21:39;;;;;;;39.08;16.27;;;5.60;99.90;;;4.56;100.00;97395.09;5045446;28;20223;-70
2021/11/22 00:24:06;;;;;;;38.65;15.60;;;5.60;99.90;;;4.51;100.00;97390.06;5042576;28;20204;-70
2021/11/22 00:26:33;;;;;;;44.88;16.40;;;5.60;99.90;;;4.53;100.00;97398.59;5043832;28;20587;-69
2021/11/22 00:29:00;;;;;;;38.65;14.48;;;5.60;99.90;;;4.56;100.00;97398.53;5045811;28;20052;-70
2021/11/22 00:31:27;;;;;;;31.60;14.18;;;5.70;99.90;;;4.62;100.00;97402.69;5048467;28;20072;-70
2021/11/22 00:33:56;;;;;;;39.92;15.85;;;5.70;99.90;;;4.60;100.00;97405.28;5043731;28;20045;-69
2021/11/22 00:36:23;;;;;;;35.92;15.38;;;5.70;99.90;;;4.56;100.00;97408.81;5049370;28;20067;-68
2021/11/22 00:38:50;;;;;;;35.22;14.23;;;5.70;99.90;;;4.59;100.00;97407.91;5048434;28;20100;-69
2021/11/22 00:41:17;;;;;;;36.67;14.68;;;5.70;99.90;;;4.60;100.00;97414.72;5047717;28;20560;-70
2021/11/22 00:43:44;;;;;;;28.50;13.48;;;5.70;99.90;;;4.56;100.00;97411.41;5047772;28;20037;-70
2021/11/22 00:46:12;;;;;;;29.50;13.15;;;5.70;99.90;;;4.65;100.00;97414.63;5050199;28;20485;-69
2021/11/22 00:48:39;;;;;;;27.83;12.07;;;5.70;99.90;;;4.69;100.00;97418.84;5044467;28;20048;-70
2021/11/22 00:51:06;;;;;;;38.40;15.00;;;5.80;99.90;;;4.63;100.00;97419.81;5046685;28;20103;-69
2021/11/22 00:53:33;;;;;;;34.80;15.30;;;5.70;99.90;;;4.68;100.00;97424.88;5043541;28;20124;-69
2021/11/22 00:56:00;;;;;;;35.17;14.27;;;5.70;99.90;;;4.65;100.00;97430.06;5046855;28;20500;-69
2021/11/22 00:58:27;;;;;;;24.75;11.35;;;5.70;99.90;;;4.66;100.00;97435.19;5049472;28;20394;-70
2021/11/22 01:00:54;;;;;;;38.60;13.63;;;5.80;99.90;;;4.67;100.00;97434.28;5046316;28;20144;-70
2021/11/22 01:03:21;;;;;;;30.95;12.93;;;5.80;99.90;;;4.68;100.00;97437.72;5045772;28;20474;-69
2021/11/22 01:05:48;;;;;;;32.13;13.57;;;5.80;99.90;;;4.66;100.00;97444.63;5043298;28;20235;-70
2021/11/22 01:08:15;;;;;;;28.77;14.00;;;5.70;99.90;;;4.62;100.00;97441.25;5043903;28;20122;-69
2021/11/22 01:10:43;;;;;;;50.95;15.98;;;5.70;99.90;;;4.63;100.00;97450.69;5045654;28;20076;-70
2021/11/22 01:13:11;;;;;;;25.80;11.77;;;5.70;99.90;;;4.61;100.00;97442.16;5041117;28;20114;-69
2021/11/22 01:15:38;;;;;;;33.92;14.35;;;5.70;99.90;;;4.59;100.00;97449.88;5038172;28;20114;-69
2021/11/22 01:18:06;;;;;;;33.92;13.80;;;5.70;99.90;;;4.60;100.00;97450.72;5043783;28;20103;-70
2021/11/22 01:20:33;;;;;;;28.85;14.05;;;5.70;99.90;;;4.57;100.00;97440.50;5045331;28;20489;-69
2021/11/22 01:23:08;;;;;;;22.75;12.27;;;5.70;99.90;;;4.67;100.00;97449.72;5039922;28;20077;-69
2021/11/22 01:25:38;;;;;;;36.22;15.23;;;5.70;99.90;;;4.67;100.00;97452.28;5041830;28;20081;-69
2021/11/22 01:28:06;;;;;;;32.63;14.38;;;5.70;99.90;;;4.63;100.00;97453.25;5038411;28;20110;-71
2021/11/22 01:30:34;;;;;;;43.38;17.10;;;5.70;99.90;;;4.59;100.00;97451.63;5051333;28;20123;-69
2021/11/22 01:33:01;;;;;;;37.45;15.50;;;5.70;99.90;;;4.58;100.00;97461.06;5051904;28;20168;-71
2021/11/22 01:35:28;;;;;;;39.17;14.40;;;5.70;99.90;;;4.54;100.00;97464.56;5039141;28;20080;-68
2021/11/22 01:37:55;;;;;;;31.42;13.85;;;5.60;99.90;;;4.56;100.00;97462.81;5052886;28;20129;-70
2021/11/22 01:40:26;;;;;;;42.33;15.75;;;5.70;99.90;;;4.52;100.00;97466.31;5050824;28;20083;-70
2021/11/22 01:42:55;;;;;;;39.70;15.45;;;5.60;99.90;;;4.54;100.00;97464.56;5055494;28;20077;-69
2021/11/22 01:45:23;;;;;;;29.13;12.93;;;5.60;99.90;;;4.50;100.00;97472.38;5056717;28;20094;-69
2021/11/22 01:47:51;;;;;;;29.35;13.73;;;5.60;99.90;;;4.54;100.00;97479.97;5062333;28;20088;-69
2021/11/22 01:50:21;;;;;;;26.85;11.65;;;5.60;99.90;;;4.55;100.00;97481.66;5058121;28;20460;-70
2021/11/22 01:52:50;;;;;;;30.48;13.00;;;5.70;99.90;;;4.54;100.00;97474.84;5054338;28;20136;-71
2021/11/22 01:55:20;;;;;;;34.85;12.43;;;5.70;99.90;;;4.62;100.00;97479.81;5051206;28;20055;-69
2021/11/22 01:57:51;;;;;;;27.15;12.82;;;5.70;99.90;;;4.61;100.00;97478.97;5050350;28;20049;-69
2021/11/22 02:00:25;;;;;;;41.65;14.98;;;5.70;99.90;;;4.56;100.00;97479.94;5060935;28;20075;-69
2021/11/22 02:02:53;;;;;;;38.35;14.52;;;5.60;99.90;;;4.53;100.00;97475.69;5046541;28;20443;-70
2021/11/22 02:05:21;;;;;;;36.25;12.48;;;5.60;99.90;;;4.56;100.00;97488.50;5056419;28;20059;-69
2021/11/22 02:07:50;;;;;;;37.55;13.63;;;5.60;99.90;;;4.50;100.00;97485.22;5045476;28;20135;-69
2021/11/22 02:10:18;;;;;;;35.67;14.23;;;5.60;99.90;;;4.53;100.00;97488.56;5064001;28;20149;-69
2021/11/22 02:12:45;;;;;;;36.20;14.88;;;5.60;99.90;;;4.48;100.00;97490.38;5042230;28;20052;-70
2021/11/22 02:15:14;;;;;;;30.40;13.43;;;5.60;99.90;;;4.50;100.00;97501.47;5049534;28;20103;-70
2021/11/22 02:17:45;;;;;;;28.48;13.48;;;5.60;99.90;;;4.47;100.00;97495.53;5042776;28;20079;-69
2021/11/22 02:20:17;;;;;;;39.05;13.80;;;5.60;99.90;;;4.47;100.00;97492.97;5047644;28;20132;-70
2021/11/22 02:22:47;;;;;;;34.47;15.07;;;5.60;99.90;;;4.43;100.00;97493.94;5049267;28;20555;-70
2021/11/22 02:25:18;;;;;;;24.95;11.48;;;5.60;99.90;;;4.42;100.00;97493.06;5052928;28;20119;-69
2021/11/22 02:27:46;;;;;;;35.25;13.00;;;5.60;99.90;;;4.50;100.00;97505.78;5053365;28;20064;-70
2021/11/22 02:30:16;;;;;;;38.83;13.68;;;5.60;99.90;;;4.42;100.00;97505.91;5058602;28;20152;-70
2021/11/22 02:32:44;;;;;;;34.83;12.75;;;5.50;99.90;;;4.45;100.00;97505.88;5046710;28;20130;-70
2021/11/22 02:35:19;;;;;;;34.67;13.43;;;5.60;99.90;;;4.45;100.00;97500.72;5052027;28;20168;-70
2021/11/22 02:37:47;;;;;;;25.25;13.13;;;5.60;99.90;;;4.47;100.00;97498.09;5046164;28;20128;-70
2021/11/22 02:40:15;;;;;;;32.20;12.35;;;5.50;99.90;;;4.39;100.00;97495.69;5056228;28;20141;-69
2021/11/22 02:42:44;;;;;;;40.40;14.95;;;5.60;99.90;;;4.42;100.00;97493.06;5056986;28;20127;-69
2021/11/22 02:45:17;;;;;;;34.25;13.98;;;5.50;99.90;;;4.42;100.00;97495.63;5047946;28;20049;-69
2021/11/22 02:47:47;;;;;;;38.80;14.55;;;5.50;99.90;;;4.40;100.00;97499.94;5054803;28;20045;-70
2021/11/22 02:50:16;;;;;;;36.60;13.48;;;5.50;99.90;;;4.36;100.00;97504.31;5058043;28;20127;-70
2021/11/22 02:52:43;;;;;;;39.47;15.07;;;5.50;99.90;;;4.34;100.00;97508.63;5060731;28;20084;-69
2021/11/22 02:55:14;;;;;;;42.03;14.32;;;5.60;99.90;;;4.40;100.00;97511.09;5062800;28;20049;-70
2021/11/22 02:57:41;;;;;;;38.42;13.82;;;5.50;99.90;;;4.48;100.00;97513.50;5070370;28;20049;-69
2021/11/22 03:00:25;;;;;;;39.20;13.18;;;5.50;99.90;;;4.36;100.00;97509.47;5053214;28;20079;-70
2021/11/22 03:02:53;;;;;;;44.53;14.05;;;5.50;99.90;;;4.38;100.00;97514.56;5048009;28;20072;-69
2021/11/22 03:05:23;;;;;;;31.85;13.45;;;5.50;99.90;;;4.38;100.00;97518.00;5067972;28;20132;-69
2021/11/22 03:07:52;;;;;;;34.95;15.45;;;5.50;99.90;;;4.43;100.00;97522.19;5052708;28;20076;-69
2021/11/22 03:10:21;;;;;;;45.67;16.35;;;5.50;99.90;;;4.36;100.00;97530.00;5052259;28;20149;-70
2021/11/22 03:12:49;;;;;;;42.78;14.32;;;5.50;99.90;;;4.42;100.00;97523.06;5042415;28;20596;-70
2021/11/22 03:15:19;;;;;;;39.50;16.65;;;5.50;99.90;;;4.36;100.00;97519.72;5057384;28;20497;-70
2021/11/22 03:17:47;;;;;;;46.85;15.82;;;5.50;99.90;;;4.30;100.00;97519.84;5057139;28;20135;-70
2021/11/22 03:20:18;;;;;;;26.58;12.35;;;5.40;99.90;;;4.30;100.00;97529.28;5048795;28;20561;-69
2021/11/22 03:22:46;;;;;;;37.83;13.65;;;5.50;99.90;;;4.38;100.00;97535.97;5052166;28;20125;-69
2021/11/22 03:25:16;;;;;;;35.75;13.07;;;5.40;99.90;;;4.29;100.00;97528.44;5045885;28;20079;-68
2021/11/22 03:27:46;;;;;;;37.83;14.15;;;5.40;99.90;;;4.30;100.00;97527.53;5042426;28;20053;-70
2021/11/22 03:30:15;;;;;;;30.70;12.98;;;5.50;99.90;;;4.28;100.00;97531.88;5055116;28;20128;-69
2021/11/22 03:32:43;;;;;;;29.30;12.05;;;5.50;99.90;;;4.33;100.00;97534.34;5056713;28;20464;-70
2021/11/22 03:35:12;;;;;;;24.90;12.73;;;5.50;99.90;;;4.30;100.00;97535.25;5047360;28;20056;-69
2021/11/22 03:37:39;;;;;;;29.38;12.18;;;5.40;99.90;;;4.28;100.00;97536.16;5049214;28;20148;-69
2021/11/22 03:40:07;;;;;;;33.08;12.18;;;5.40;99.90;;;4.35;100.00;97540.31;5058822;28;20592;-70
2021/11/22 03:45:21;;;;;;;27.95;11.68;;;5.40;99.90;;;4.32;100.00;97551.50;5054386;28;20136;-69
2021/11/22 03:47:48;;;;;;;41.42;10.93;;;5.40;99.90;;;4.22;100.00;97547.41;5059482;28;20045;-70
2021/11/22 03:50:15;;;;;;;20.83;9.95;;;5.40;99.90;;;4.25;100.00;97552.50;5048757;28;20136;-69
2021/11/22 03:52:43;;;;;;;33.30;12.18;;;5.40;99.90;;;4.20;100.00;97556.88;5055899;28;20611;-69
2021/11/22 03:55:10;;;;;;;25.70;10.48;;;5.30;99.90;;;4.20;100.00;97556.88;5049456;28;20152;-70
2021/11/22 03:57:37;;;;;;;30.67;11.23;;;5.40;99.90;;;4.25;100.00;97562.75;5060337;28;20132;-69
2021/11/22 04:00:06;;;;;;;22.15;8.65;;;5.30;99.90;;;4.23;100.00;97566.25;5061289;28;20502;-70
2021/11/22 04:02:33;;;;;;;21.73;8.80;;;5.30;99.90;;;4.30;100.00;97565.25;5044603;28;20079;-68
2021/11/22 04:05:00;;;;;;;23.50;10.07;;;5.40;99.90;;;4.29;100.00;97572.13;5055462;28;20128;-70
2021/11/22 04:07:27;;;;;;;24.30;9.98;;;5.40;99.90;;;4.25;100.00;97567.06;5050862;28;20072;-70
2021/11/22 04:09:55;;;;;;;22.50;9.13;;;5.40;99.90;;;4.21;100.00;97579.09;5050791;28;20048;-68
2021/11/22 04:12:22;;;;;;;19.60;8.93;;;5.40;99.90;;;4.24;100.00;97581.59;5044829;28;20135;-71
2021/11/22 04:14:49;;;;;;;23.15;9.57;;;5.40;99.90;;;4.17;100.00;97578.31;5059256;28;20098;-70
2021/11/22 04:17:18;;;;;;;23.48;8.65;;;5.40;99.90;;;4.24;100.00;97589.31;5056974;28;20076;-69
2021/11/22 04:19:45;;;;;;;24.73;10.00;;;5.40;99.90;;;4.29;100.00;97591.81;5046363;28;20531;-69
2021/11/22 04:22:12;;;;;;;21.75;8.55;;;5.40;99.90;;;4.18;100.00;97595.41;5051656;28;20128;-69
2021/11/22 04:24:39;;;;;;;27.10;9.82;;;5.40;99.90;;;4.22;100.00;97595.34;5055251;28;20132;-69
2021/11/22 04:27:09;;;;;;;22.50;9.10;;;5.40;99.90;;;4.19;100.00;97604.81;5040881;28;20076;-70
2021/11/22 04:29:36;;;;;;;26.02;9.70;;;5.30;99.90;;;4.16;100.00;97609.16;5052341;28;20124;-69
2021/11/22 04:32:03;;;;;;;24.73;8.35;;;5.30;99.90;;;4.17;100.00;97606.59;5048860;28;20140;-69
2021/11/22 04:34:30;;;;;;;19.23;7.90;;;5.30;99.90;;;4.11;100.00;97609.25;5046891;28;20041;-69
2021/11/22 04:36:57;;;;;;;17.38;7.57;;;5.30;99.90;;;4.10;100.00;97609.25;5047588;28;20049;-69
2021/11/22 04:39:24;;;;;;;18.10;6.05;;;5.30;99.90;;;4.11;100.00;97606.66;5034597;28;20136;-69
2021/11/22 04:41:52;;;;;;;16.85;7.20;;;5.30;99.90;;;4.13;100.00;97622.91;5051638;28;20135;-69
2021/11/22 04:44:19;;;;;;;18.42;6.75;;;5.20;99.90;;;4.08;100.00;97619.56;5055755;28;20159;-69
2021/11/22 04:46:46;;;;;;;30.13;7.05;;;5.20;99.90;;;4.13;100.00;97622.91;5047755;28;20101;-69
2021/11/22 04:49:13;;;;;;;21.65;7.25;;;5.20;99.90;;;4.10;100.00;97627.25;5057023;28;20135;-68
2021/11/22 04:51:40;;;;;;;19.50;6.20;;;5.20;99.90;;;4.08;100.00;97629.84;5044641;28;20072;-69
2021/11/22 04:54:07;;;;;;;19.85;6.00;;;5.20;99.90;;;4.10;100.00;97633.22;5057289;28;20084;-69
2021/11/22 04:56:34;;;;;;;23.83;6.45;;;5.20;99.90;;;4.09;100.00;97636.66;5050933;28;20133;-69
2021/11/22 04:59:01;;;;;;;18.10;6.78;;;5.20;99.90;;;4.07;100.00;97637.56;5058301;28;20056;-70
2021/11/22 05:01:29;;;;;;;14.50;5.13;;;5.20;99.90;;;4.05;100.00;97637.59;5036756;28;20048;-69
2021/11/22 05:03:57;;;;;;;22.42;6.75;;;5.20;99.90;;;4.07;100.00;97646.13;5059120;28;20045;-70
2021/11/22 05:06:25;;;;;;;18.85;7.20;;;5.20;99.90;;;4.04;100.00;97641.03;5055138;28;20534;-69
2021/11/22 05:08:52;;;;;;;27.17;7.78;;;5.10;99.90;;;4.02;100.00;97644.50;5053961;28;20100;-69
2021/11/22 05:11:19;;;;;;;19.80;6.40;;;5.20;99.90;;;4.07;100.00;97640.97;5050009;28;20517;-70
2021/11/22 05:13:46;;;;;;;19.70;6.82;;;5.20;99.90;;;4.01;100.00;97647.94;5043476;28;20123;-69
2021/11/22 05:16:13;;;;;;;21.75;6.00;;;5.10;99.90;;;3.98;100.00;97651.41;5043299;28;20145;-69
2021/11/22 05:18:40;;;;;;;17.58;5.97;;;5.20;99.90;;;4.01;100.00;97646.19;5048234;28;20497;-69
2021/11/22 05:21:07;;;;;;;17.83;6.20;;;5.20;99.90;;;4.01;100.00;97645.38;5050698;28;20041;-69
2021/11/22 05:23:35;;;;;;;22.38;7.18;;;5.20;99.90;;;4.01;100.00;97653.06;5048716;28;20143;-69
2021/11/22 05:26:02;;;;;;;24.10;6.10;;;5.10;99.90;;;4.01;100.00;97656.47;5049618;28;20069;-69
2021/11/22 05:28:29;;;;;;;24.20;6.20;;;5.10;99.90;;;4.00;100.00;97664.22;5055298;28;20084;-69
2021/11/22 05:30:56;;;;;;;19.63;6.28;;;5.10;99.90;;;3.98;100.00;97659.94;5050144;28;20057;-70
2021/11/22 05:33:23;;;;;;;22.75;6.80;;;5.10;99.90;;;3.99;100.00;97665.91;5030378;28;20055;-69
2021/11/22 05:35:50;;;;;;;24.70;6.35;;;5.10;99.90;;;3.95;100.00;97665.13;5057288;28;20071;-69
2021/11/22 05:38:17;;;;;;;20.45;7.05;;;5.00;99.90;;;3.96;100.00;97678.81;5053423;28;20149;-68
2021/11/22 05:40:44;;;;;;;18.60;6.18;;;5.10;99.90;;;3.97;100.00;97672.84;5055426;28;20051;-68
2021/11/22 05:43:11;;;;;;;21.02;5.95;;;5.10;99.90;;;3.91;100.00;97678.88;5054994;28;20044;-68
2021/11/22 05:45:39;;;;;;;17.83;6.30;;;5.10;99.90;;;3.92;100.00;97683.16;5049556;28;20069;-69
2021/11/22 05:48:07;;;;;;;19.08;6.45;;;5.10;99.90;;;3.90;100.00;97682.34;5059487;28;20049;-69
2021/11/22 05:50:35;;;;;;;22.67;6.30;;;5.10;99.90;;;3.96;100.00;97684.78;5049959;28;20061;-69
2021/11/22 05:53:05;;;;;;;18.35;5.82;;;5.10;99.90;;;3.96;100.00;97695.06;5062160;28;20144;-69
2021/11/22 05:55:41;;;;;;;20.13;5.70;;;5.10;99.90;;;3.95;100.00;97700.25;5053625;28;20135;-69
2021/11/22 05:58:13;;;;;;;21.85;6.35;;;5.10;99.90;;;3.92;100.00;97705.41;5050559;28;20076;-69
2021/11/22 06:00:41;;;;;;;17.08;4.93;;;5.00;99.90;;;3.85;100.00;97703.81;5050133;28;20135;-69
2021/11/22 06:03:10;;;;;;;25.58;6.38;;;5.00;99.90;;;3.93;100.00;97712.25;5048509;28;20496;-69
2021/11/22 06:05:37;;;;;;;22.13;5.90;;;5.00;99.90;;;3.91;100.00;97721.69;5041187;28;20071;-69
2021/11/22 06:08:05;;;;;;;15.63;5.82;;;5.00;99.90;;;3.91;100.00;97714.00;5051024;28;20048;-69
2021/11/22 06:10:32;;;;;;;24.13;5.53;;;5.00;99.90;;;3.88;100.00;97714.91;5039846;28;20114;-69
2021/11/22 06:12:59;;;;;;;22.75;5.72;;;5.00;99.90;;;3.86;100.00;97726.91;5047397;28;20083;-69
2021/11/22 06:15:27;;;;;;;19.58;5.55;;;5.00;99.90;;;3.94;100.00;97729.34;5053304;28;20472;-69
2021/11/22 06:17:54;;;;;;;16.77;5.47;;;5.00;99.90;;;3.89;100.00;97729.41;5034244;28;20556;-68
2021/11/22 06:20:21;;;;;;;27.52;5.82;;;5.00;99.90;;;3.85;100.00;97730.31;5047538;28;20381;-70
2021/11/22 06:22:48;;;;;;;24.52;6.70;;;5.00;99.90;;;3.85;100.00;97729.47;5047324;28;20097;-69
2021/11/22 06:25:15;;;;;;;20.58;5.15;;;5.00;99.90;;;3.85;100.00;97738.03;5048549;28;20517;-67
2021/11/22 06:27:42;;;;;;;16.50;4.78;;;5.00;99.90;;;3.86;100.00;97744.88;5054286;28;20053;-69
2021/11/22 06:30:10;;;;;;;16.13;5.03;;;5.10;99.90;;;3.85;100.00;97748.28;5054981;28;20128;-69
2021/11/22 06:32:37;;;;;;;22.00;6.40;;;5.00;99.90;;;3.89;100.00;97749.13;5039629;28;20045;-69
2021/11/22 06:35:05;;;;;;;14.00;4.70;;;5.00;99.90;;;3.88;100.00;97755.97;5049303;28;20076;-69
2021/11/22 06:37:34;;;;;;;18.23;5.93;;;5.10;99.90;;;3.87;100.00;97750.84;5036496;28;20568;-68
2021/11/22 06:40:09;;;;;;;10.77;3.65;;;5.00;99.90;;;3.88;100.00;97766.25;5040727;28;20049;-70
2021/11/22 06:42:37;;;;;;;18.02;4.97;;;5.00;99.90;;;3.90;100.00;97766.22;5040725;28;20488;-69
2021/11/22 06:45:08;;;;;;;12.95;4.07;;;5.00;99.90;;;3.88;100.00;97768.81;5042114;28;20131;-69
2021/11/22 06:47:36;;;;;;;17.33;4.78;;;5.00;99.90;;;3.85;100.00;97775.69;5042620;28;20135;-68
2021/11/22 06:50:05;;;;;;;17.42;5.00;;;5.00;99.90;;;3.88;100.00;97785.94;5044946;28;20055;-68
2021/11/22 06:52:32;;;;;;;15.85;4.45;;;5.00;99.90;;;3.86;100.00;97785.97;5058568;28;20124;-69
2021/11/22 06:54:59;;;;;;;13.25;4.97;;;5.00;99.90;;;3.91;100.00;97788.47;5045195;28;20072;-70
2021/11/22 06:57:28;;;;;;;14.75;3.90;;;5.00;99.90;;;3.87;100.00;97797.06;5048583;28;20482;-68
2021/11/22 06:59:56;;;;;;;17.75;4.07;;;5.00;99.90;;;3.88;100.00;97806.50;5049228;28;20231;-69
2021/11/22 07:02:24;;;;;;;14.00;2.92;;;5.10;99.90;;;3.90;100.00;97807.31;5041311;28;20132;-69
2021/11/22 07:04:52;;;;;;;14.18;3.95;;;5.00;99.90;;;3.85;100.00;97809.09;5038327;28;20430;-69
2021/11/22 07:07:20;;;;;;;11.50;3.95;;;5.00;99.90;;;3.82;100.00;97817.66;5045867;28;20080;-69
2021/11/22 07:09:47;;;;;;;17.25;4.07;;;4.90;99.90;;;3.88;100.00;97824.47;5044844;28;20124;-68
2021/11/22 07:12:14;;;;;;;13.30;3.03;;;5.00;99.90;;;3.81;100.00;97833.09;5071796;28;20072;-69
2021/11/22 07:14:43;;;;;;;14.20;3.22;;;4.90;99.90;;;3.80;100.00;97839.94;5051495;28;20583;-68
2021/11/22 07:17:14;;;;;;;16.10;3.45;;;4.90;99.90;;;3.81;100.00;97848.50;5053032;28;20111;-69
2021/11/22 07:19:44;;;;;;;17.30;3.30;;;4.90;99.90;;;3.83;100.00;97847.63;5037226;28;20049;-69
2021/11/22 07:22:13;;;;;;;14.82;3.55;;;4.90;99.90;;;3.81;100.00;97846.81;5056766;28;20524;-68
2021/11/22 07:24:42;;;;;;;12.60;2.35;;;5.00;99.90;;;3.86;100.00;97849.31;5050967;28;20146;-69
2021/11/22 07:27:10;;;;;;;10.95;2.63;;;4.90;99.90;;;3.82;100.00;97855.34;5061483;28;20140;-70
2021/11/22 07:29:38;;;;;;;8.75;2.20;;;5.00;99.90;;;3.76;100.00;97866.50;5054375;28;20109;-68
2021/11/22 07:32:06;;;;;;;14.52;2.72;;;5.00;99.90;;;3.85;100.00;97863.84;5055363;28;20136;-67
2021/11/22 07:34:33;;;;;;;11.93;2.95;;;5.00;99.90;;;3.77;100.00;97863.09;5054087;28;20128;-68
2021/11/22 07:37:00;;;;;;;11.25;2.63;;;4.90;99.90;;;3.83;100.00;97869.88;5056094;28;20125;-67
2021/11/22 07:39:29;;;;;;;9.70;2.88;;;4.90;99.90;;;3.77;100.00;97873.38;5049802;28;20056;-68
2021/11/22 07:41:57;;;;;;;13.18;3.17;;;4.90;99.90;;;3.78;100.00;97878.47;5053840;28;20080;-68
2021/11/22 07:44:25;;;;;;;8.70;2.38;;;4.90;99.90;;;3.74;100.00;97884.53;5058742;28;20069;-71
2021/11/22 07:46:54;;;;;;;11.25;2.67;;;4.90;99.90;;;3.83;100.00;97881.03;5044869;28;20445;-69
2021/11/22 07:49:21;;;;;;;14.75;2.97;;;4.90;99.90;;;3.73;100.00;97887.09;5066943;28;20076;-68
2021/11/22 07:51:48;;;;;;;11.38;2.92;;;4.90;99.90;;;3.71;100.00;97888.84;5045680;28;20080;-70
2021/11/22 07:54:15;;;;;;;9.63;2.67;;;4.90;99.90;;;3.64;100.00;97897.47;5049112;28;20136;-69
2021/11/22 07:56:44;;;;;;;11.98;2.90;;;4.80;99.90;;;3.68;100.00;97894.84;5048535;28;20084;-70
2021/11/22 07:59:11;;;;;;;12.50;2.45;;;4.80;99.90;;;3.64;100.00;97902.59;5046094;28;20198;-68
2021/11/22 08:01:38;;;;;;;15.45;2.88;;;4.80;99.90;;;3.64;100.00;97906.00;5046924;28;20080;-69
2021/11/22 08:04:12;;;;;;;15.52;3.08;;;4.70;99.90;;;3.66;100.00;97900.88;5044808;28;20080;-68
2021/11/22 08:06:47;;;;;;;15.93;3.05;;;4.70;99.90;;;3.61;100.00;97912.91;5042037;28;20052;-68
2021/11/22 08:09:25;;;;;;;13.32;2.53;;;4.70;99.90;;;3.58;100.00;97916.34;5043325;28;20095;-69
2021/11/22 08:12:24;;;;;;;17.27;2.90;;;4.70;99.90;;;3.55;100.00;97913.78;5031619;28;20128;-69
2021/11/22 08:14:41;;;;;;;15.35;2.63;;;4.70;99.90;;;3.51;100.00;97923.25;5041384;28;20080;-69
2021/11/22 08:17:11;;;;;;;6.35;2.17;;;4.70;99.90;;;3.55;100.00;97921.50;5032273;28;20135;-70
2021/11/22 08:19:39;;;;;;;11.38;2.13;;;4.70;99.90;;;3.47;100.00;97928.44;5046066;28;20639;-70
2021/11/22 08:22:06;;;;;;;9.35;2.40;;;4.70;99.90;;;3.51;100.00;97932.66;5042925;28;20247;-70
2021/11/22 08:24:33;;;;;;;13.57;2.40;;;4.70;99.90;;;3.54;100.00;97937.78;5048661;28;20052;-71
2021/11/22 08:27:01;;;;;;;13.38;2.40;;;4.70;99.90;;;3.48;100.00;97948.94;5045024;28;20044;-70
2021/11/22 08:29:29;;;;;;;14.20;2.70;;;4.60;99.90;;;3.42;100.00;97955.81;5043391;28;20731;-71
2021/11/22 08:31:56;;;;;;;12.10;2.55;;;4.60;99.90;;;3.46;100.00;97953.22;5047796;28;20048;-71
2021/11/22 08:34:23;;;;;;;5.32;2.72;;;4.60;99.90;;;3.47;100.00;97961.78;5047520;28;20048;-70
2021/11/22 08:36:50;;;;;;;14.50;2.58;;;4.60;99.90;;;3.47;100.00;97967.78;5042347;28;20136;-71
2021/11/22 08:39:17;;;;;;;13.23;3.10;;;4.70;99.90;;;3.59;100.00;97971.09;5040360;28;20138;-71
2021/11/22 08:41:44;;;;;;;18.83;2.28;;;4.70;99.90;;;3.58;100.00;97972.81;5042499;28;20041;-69
2021/11/22 08:44:11;;;;;;;14.77;2.03;;;4.80;99.90;;;3.62;100.00;97974.47;5044082;28;20472;-69
2021/11/22 08:46:38;;;;;;;14.68;3.03;;;4.80;99.90;;;3.68;100.00;97977.00;5054799;28;20080;-70
2021/11/22 08:49:07;;;;;;;7.53;2.28;;;4.80;99.90;;;3.77;100.00;97976.91;5051884;28;20458;-69
2021/11/22 08:51:35;;;;;;;10.32;2.55;;;4.90;99.90;;;3.66;100.00;97983.84;5053637;28;20049;-70
2021/11/22 08:54:03;;;;;;;8.57;2.40;;;4.90;99.90;;;3.71;100.00;97988.94;5049198;28;20085;-70
2021/11/22 08:56:30;;;;;;;10.32;2.00;;;5.00;99.90;;;3.70;100.00;97988.09;5053933;28;20133;-70
2021/11/22 08:58:58;;;;;;;16.85;2.85;;;5.00;99.90;;;3.73;100.00;98003.47;5054821;28;20406;-69
2021/11/22 09:01:26;;;;;;;7.68;1.85;;;5.00;99.90;;;3.81;100.00;97989.72;5052609;28;20538;-70
2021/11/22 09:03:56;;;;;;;13.63;2.97;;;5.00;99.90;;;3.86;100.00;97995.69;5060560;28;20136;-71
2021/11/22 09:06:23;;;;;;;11.70;2.33;;;5.00;99.90;;;3.77;100.00;98005.16;5043366;28;20087;-70
2021/11/22 09:08:50;;;;;;;17.70;3.53;;;4.90;99.90;;;3.73;100.00;97998.34;5059841;28;20119;-70
2021/11/22 09:11:18;;;;;;;9.68;2.40;;;4.90;99.90;;;3.83;100.00;98008.53;5054234;28;20049;-70
2021/11/22 09:13:46;;;;;;;14.20;3.03;;;4.90;99.90;;;3.83;100.00;98016.22;5048022;28;20725;-70
2021/11/22 09:16:13;;;;;;;10.15;2.35;;;4.90;99.90;;;3.72;100.00;98013.78;5045515;28;20567;-70
2021/11/22 09:18:40;;;;;;;11.48;2.60;;;5.00;99.90;;;3.68;100.00;98022.38;5063414;28;20092;-69
2021/11/22 09:21:08;;;;;;;9.88;2.70;;;5.00;99.90;;;3.78;100.00;98024.81;5058747;28;20476;-69
2021/11/22 09:23:35;;;;;;;7.93;2.15;;;4.90;99.90;;;3.90;100.00;98030.72;5042875;28;20076;-70
2021/11/22 09:26:02;;;;;;;16.33;2.83;;;5.00;99.90;;;3.85;100.00;98035.06;5049552;28;20492;-70
2021/11/22 09:28:29;;;;;;;11.93;3.28;;;5.00;99.90;;;3.83;100.00;98032.53;5051772;28;20041;-70
2021/11/22 09:30:56;;;;;;;10.30;2.28;;;5.00;99.90;;;3.84;100.00;98041.06;5046858;28;20041;-70
2021/11/22 09:33:23;;;;;;;12.15;2.83;;;5.00;99.90;;;3.91;100.00;98040.16;5053848;28;20128;-70
2021/11/22 09:35:56;;;;;;;11.30;2.45;;;5.00;99.90;;;4.02;100.00;98043.47;5043763;28;20116;-70
2021/11/22 09:38:23;;;;;;;7.93;2.17;;;5.20;99.90;;;4.05;100.00;98047.72;5043969;28;20095;-70
2021/11/22 09:40:50;;;;;;;11.73;2.50;;;5.20;99.90;;;4.09;100.00;98037.41;5043529;28;20509;-70
2021/11/22 09:43:17;;;;;;;10.05;2.25;;;5.40;99.90;;;4.21;100.00;98043.31;5046406;28;20140;-70
2021/11/22 09:45:47;;;;;;;14.07;2.42;;;5.50;99.90;;;4.24;100.00;98045.81;5048228;28;20047;-69
2021/11/22 09:48:14;;;;;;;5.70;1.98;;;5.50;99.90;;;4.38;100.00;98046.56;5046229;28;20392;-71
2021/11/22 09:50:41;;;;;;;8.07;2.17;;;5.60;99.90;;;4.32;100.00;98050.03;5040880;28;21003;-68
2021/11/22 09:53:09;;;;;;;10.85;2.15;;;5.50;99.90;;;4.58;100.00;98054.03;5044031;28;20049;-70
2021/11/22 09:55:37;;;;;;;6.70;1.90;;;5.70;99.90;;;4.58;100.00;98062.63;5045754;28;20049;-70
2021/11/22 09:58:07;;;;;;;10.73;1.88;;;5.80;99.90;;;4.72;100.00;98054.75;5038505;28;20050;-70
2021/11/22 10:00:40;;;;;;;7.05;2.13;;;5.90;99.90;;;4.85;100.00;98054.59;5038167;28;20072;-69
2021/11/22 10:03:14;;;;;;;9.45;2.50;;;5.90;99.90;;;4.64;100.00;98061.69;5045001;28;20076;-70
2021/11/22 10:05:43;;;;;;;8.07;2.33;;;5.90;99.90;;;4.65;100.00;98063.38;5041268;28;20045;-70
2021/11/22 10:08:18;;;;;;;10.15;2.20;;;5.90;99.90;;;4.84;100.00;98051.19;5043236;28;20133;-70
2021/11/22 10:10:55;;;;;;;7.97;1.90;;;6.10;99.90;;;4.65;100.00;98062.53;5045364;28;20103;-70
2021/11/22 10:13:38;;;;;;;6.13;1.60;;;5.90;99.90;;;4.67;100.00;98068.53;5040643;28;20072;-70
2021/11/22 10:16:11;;;;;;;7.40;2.13;;;5.90;99.90;;;4.92;100.00;98063.94;5046887;28;20136;-70
2021/11/22 10:18:59;;;;;;;7.50;1.85;;;6.10;99.90;;;4.99;100.00;98060.41;5045372;28;20048;-71
2021/11/22 10:21:35;;;;;;;6.68;1.52;;;6.20;99.90;;;5.12;100.00;98059.41;5041115;28;20148;-69
2021/11/22 10:24:09;;;;;;;7.18;1.95;;;6.40;99.90;;;5.06;100.00;98061.19;5046869;28;20052;-70
2021/11/22 10:26:49;;;;;;;8.25;1.77;;;6.40;99.90;;;4.95;100.00;98066.47;5052493;28;20124;-70